ADDS METAR Data INFO
IDs: Format: Raw Decoded Include TAF

Data at: 0321 UTC 16 Dec 2017

KBNA 160253Z 18007KT 10SM CLR M01/M05 A3021 RMK AO2 SLP234 T10061050 52010
KBNA 160153Z 18005KT 10SM OVC048 00/M04 A3021 RMK AO2 SLP232 T00001044
KBNA 160053Z 17003KT 10SM SCT050 01/M05 A3019 RMK AO2 SLP226 T00111050
KBNA 152353Z 00000KT 10SM CLR 03/M06 A3018 RMK AO2 SLP223 T00331056 10056 20028 51013
KBNA 152253Z 00000KT 10SM CLR 04/M06 A3017 RMK AO2 SLP220 T00391056
KBNA 152153Z 21006KT 10SM FEW200 05/M06 A3015 RMK AO2 SLP214 T00501056
KBNA 152053Z 22005KT 10SM FEW200 05/M06 A3014 RMK AO2 SLP210 T00501061 56011
KBNA 151953Z 22005KT 10SM FEW200 05/M06 A3014 RMK AO2 SLP210 T00501061
KBNA 151853Z 30008KT 10SM FEW040 SCT200 04/M06 A3015 RMK AO2 SLP212 T00441061
KBNA 151753Z 30007KT 10SM BKN031 BKN050 03/M06 A3017 RMK AO2 SLP220 T00281061 10033 20000 58001
KBNA 151653Z 31008KT 10SM OVC030 02/M06 A3020 RMK AO2 SLP229 T00171061
KBNA 151553Z 32008KT 10SM OVC030 01/M06 A3020 RMK AO2 SLP230 T00111061
KBNA 151513Z 31013KT 10SM OVC030 01/M07 A3018 RMK AO2 T00111067
KBNA 151453Z 32007KT 10SM OVC029 01/M07 A3017 RMK AO2 SLP222 T00111067 51022
KBNA 151424Z 29007KT 10SM OVC029 01/M07 A3016 RMK AO2 T00061067
KBNA 151353Z 29008KT 10SM OVC030 01/M07 A3016 RMK AO2 SLP216 T00061067
KBNA 151253Z 33006KT 10SM OVC031 01/M07 A3013 RMK AO2 SLP207 T00061067
KBNA 151153Z 31008KT 10SM OVC032 01/M07 A3011 RMK AO2 SLP200 T00061067 10011 20006 53006
KBNA 151053Z 31007KT 10SM OVC034 01/M07 A3009 RMK AO2 SLP194 T00061067
KBNA 150953Z 34005KT 10SM OVC035 01/M07 A3008 RMK AO2 SLP189 T00061067
KBNA 150853Z 33005KT 10SM OVC034 01/M06 A3009 RMK AO2 SLP192 T00061061 55005
KBNA 150753Z 33006KT 10SM OVC033 01/M06 A3009 RMK AO2 SLP192 T00061061
KBNA 150653Z 33005KT 10SM OVC034 01/M06 A3009 RMK AO2 SLP192 T00061056
KBNA 150553Z 33007KT 10SM OVC034 01/M06 A3010 RMK AO2 SLP197 T00111061 10011 20006 400890006 50001
KBNA 150453Z 32006KT 10SM OVC034 01/M06 A3011 RMK AO2 SLP198 T00111061
KBNA 150353Z 32006KT 10SM OVC034 01/M06 A3010 RMK AO2 SLP197 T00111061
KBNA 150253Z 33006KT 10SM BKN035 01/M06 A3010 RMK AO2 SLP197 T00111056 53009
KBNA 150153Z 32005KT 10SM OVC036 01/M06 A3009 RMK AO2 SLP193 T00111056
KBNA 150053Z 32005KT 10SM FEW037 01/M06 A3008 RMK AO2 SLP188 T00061061
KBNA 142353Z 33005KT 10SM FEW037 SCT250 01/M06 A3008 RMK AO2 SLP188 T00111061 10044 20011 53011
KBNA 142253Z 34007KT 10SM BKN170 02/M06 A3005 RMK AO2 SLP178 T00221056
KBNA 142153Z COR 34006KT 10SM BKN038 BKN180 03/M05 A3005 RMK AO2 SLP177 T00331050
KBNA 142053Z 33009KT 10SM BKN035 04/M04 A3004 RMK AO2 SLP175 T00391039 53006
KBNA 141953Z 35008KT 10SM BKN032 OVC039 04/M04 A3002 RMK AO2 SLP168 T00391039
KBNA 141853Z 01007KT 10SM OVC031 04/M03 A3002 RMK AO2 SLP166 T00441033
KBNA 141824Z 35006KT 10SM OVC030 04/M04 A3002 RMK AO2 T00391039
KBNA 141753Z 33008KT 10SM OVC029 04/M03 A3002 RMK AO2 SLP168 T00391033 10050 20022 50013
KBNA 141653Z 36009KT 10SM OVC027 04/M03 A3003 RMK AO2 SLP171 T00441033
KBNA 141608Z 36009KT 10SM OVC028 04/M03 A3001 RMK AO2 T00441028
KBNA 141553Z 02008KT 10SM FEW025 OVC030 04/M02 A3001 RMK AO2 SLP164 T00441022